X  ZavřítMETAR data      LKPD Pardubice Airport

Teplota

8°C Teplota

-1°C Rosný bod

53% Vlhkost



Vítr

10 KM/H

 6 MPH

 3 M/S

 5 KTS



320°
SZ směr
Současné podmínky

Převážně polojasno Převážně polojasno
Tlak vzduchu 1014.92 (hPa) - 29.97 (in)
Dohlednost 6.2 (mi) - 10 (km)
Letiště
Kód letiště LKPD

Lokace Pardubice Airport 80 (km)

Metar:
LKPD 071830Z 32005KT 9999 SCT045 08/M01 Q1015 NOSIG RMK BLU BLU

Čas: 07-05-2021 20:30